sensor_id;sensor_type;location;lat;lon;timestamp;pressure;altitude;pressure_sealevel;temperature;humidity
35918;BME280;22011;59.912;30.300;2023-07-09T00:00:26;101276.00;;;18.43;72.79
35918;BME280;22011;59.912;30.300;2023-07-09T00:02:54;101276.19;;;18.35;72.75
35918;BME280;22011;59.912;30.300;2023-07-09T00:05:22;101272.44;;;18.22;73.40
35918;BME280;22011;59.912;30.300;2023-07-09T00:07:50;101281.75;;;18.20;73.63
35918;BME280;22011;59.912;30.300;2023-07-09T00:10:20;101275.94;;;18.16;74.07
35918;BME280;22011;59.912;30.300;2023-07-09T00:12:47;101277.06;;;18.48;74.40
35918;BME280;22011;59.912;30.300;2023-07-09T00:15:16;101280.91;;;18.19;73.78
35918;BME280;22011;59.912;30.300;2023-07-09T00:17:44;101286.91;;;18.08;74.01
35918;BME280;22011;59.912;30.300;2023-07-09T00:20:14;101283.38;;;18.08;74.59
35918;BME280;22011;59.912;30.300;2023-07-09T00:22:42;101283.78;;;18.05;74.11
35918;BME280;22011;59.912;30.300;2023-07-09T00:25:14;101276.75;;;18.17;74.08
35918;BME280;22011;59.912;30.300;2023-07-09T00:27:43;101282.16;;;18.17;74.30
35918;BME280;22011;59.912;30.300;2023-07-09T00:30:18;101282.59;;;18.27;74.45
35918;BME280;22011;59.912;30.300;2023-07-09T00:32:46;101278.03;;;18.21;74.26
35918;BME280;22011;59.912;30.300;2023-07-09T00:35:14;101292.97;;;18.23;74.14
35918;BME280;22011;59.912;30.300;2023-07-09T00:37:42;101281.56;;;18.28;74.17
35918;BME280;22011;59.912;30.300;2023-07-09T00:40:15;101278.50;;;18.44;74.43
35918;BME280;22011;59.912;30.300;2023-07-09T00:42:45;101285.13;;;18.42;73.38
35918;BME280;22011;59.912;30.300;2023-07-09T00:45:20;101286.41;;;18.46;74.51
35918;BME280;22011;59.912;30.300;2023-07-09T00:47:55;101288.88;;;18.47;74.53
35918;BME280;22011;59.912;30.300;2023-07-09T00:50:35;101287.84;;;18.48;74.76
35918;BME280;22011;59.912;30.300;2023-07-09T00:53:11;101295.88;;;18.28;74.40
35918;BME280;22011;59.912;30.300;2023-07-09T00:55:44;101295.00;;;18.15;74.09
35918;BME280;22011;59.912;30.300;2023-07-09T00:58:14;101296.88;;;18.14;74.46
35918;BME280;22011;59.912;30.300;2023-07-09T01:00:49;101293.94;;;18.09;74.80
35918;BME280;22011;59.912;30.300;2023-07-09T01:03:22;101287.50;;;18.04;75.03
35918;BME280;22011;59.912;30.300;2023-07-09T01:05:53;101281.31;;;18.16;73.85
35918;BME280;22011;59.912;30.300;2023-07-09T01:08:21;101284.66;;;18.18;73.92
35918;BME280;22011;59.912;30.300;2023-07-09T01:10:49;101280.50;;;18.16;74.00
35918;BME280;22011;59.912;30.300;2023-07-09T01:13:17;101288.59;;;18.16;74.01
35918;BME280;22011;59.912;30.300;2023-07-09T01:15:47;101291.09;;;18.17;74.24
35918;BME280;22011;59.912;30.300;2023-07-09T01:18:15;101290.25;;;18.17;74.32
35918;BME280;22011;59.912;30.300;2023-07-09T01:20:43;101299.19;;;18.24;73.67
35918;BME280;22011;59.912;30.300;2023-07-09T01:23:12;101289.88;;;18.26;74.22
35918;BME280;22011;59.912;30.300;2023-07-09T01:25:43;101299.63;;;18.27;74.65
35918;BME280;22011;59.912;30.300;2023-07-09T01:28:12;101300.03;;;18.24;74.92
35918;BME280;22011;59.912;30.300;2023-07-09T01:30:44;101301.91;;;18.24;73.92
35918;BME280;22011;59.912;30.300;2023-07-09T01:33:11;101303.31;;;18.20;74.11
35918;BME280;22011;59.912;30.300;2023-07-09T01:35:39;101290.47;;;18.22;74.00
35918;BME280;22011;59.912;30.300;2023-07-09T01:38:08;101285.50;;;18.25;74.13
35918;BME280;22011;59.912;30.300;2023-07-09T01:40:38;101288.19;;;18.25;74.77
35918;BME280;22011;59.912;30.300;2023-07-09T01:43:06;101293.56;;;18.19;74.17
35918;BME280;22011;59.912;30.300;2023-07-09T01:45:35;101297.31;;;18.18;74.43
35918;BME280;22011;59.912;30.300;2023-07-09T01:48:03;101298.34;;;18.17;74.46
35918;BME280;22011;59.912;30.300;2023-07-09T01:50:31;101300.00;;;18.18;74.51
35918;BME280;22011;59.912;30.300;2023-07-09T01:52:58;101304.59;;;18.24;74.17
35918;BME280;22011;59.912;30.300;2023-07-09T01:55:28;101296.72;;;18.29;74.46
35918;BME280;22011;59.912;30.300;2023-07-09T01:57:58;101304.19;;;18.27;74.64
35918;BME280;22011;59.912;30.300;2023-07-09T02:00:26;101306.66;;;18.22;74.31
35918;BME280;22011;59.912;30.300;2023-07-09T02:02:54;101302.94;;;18.23;74.34
35918;BME280;22011;59.912;30.300;2023-07-09T02:05:23;101304.19;;;18.27;74.23
35918;BME280;22011;59.912;30.300;2023-07-09T02:07:52;101310.22;;;18.29;74.14
35918;BME280;22011;59.912;30.300;2023-07-09T02:10:22;101310.44;;;18.34;74.16
35918;BME280;22011;59.912;30.300;2023-07-09T02:12:49;101310.44;;;18.34;74.36
35918;BME280;22011;59.912;30.300;2023-07-09T02:15:18;101318.53;;;18.34;74.85
35918;BME280;22011;59.912;30.300;2023-07-09T02:17:46;101316.22;;;18.31;74.63
35918;BME280;22011;59.912;30.300;2023-07-09T02:20:14;101317.91;;;18.32;74.62
35918;BME280;22011;59.912;30.300;2023-07-09T02:22:41;101317.91;;;18.32;74.19
35918;BME280;22011;59.912;30.300;2023-07-09T02:25:09;101320.78;;;18.30;74.49
35918;BME280;22011;59.912;30.300;2023-07-09T02:27:37;101326.41;;;18.36;74.57
35918;BME280;22011;59.912;30.300;2023-07-09T02:30:06;101323.72;;;18.36;74.45
35918;BME280;22011;59.912;30.300;2023-07-09T02:32:35;101327.91;;;18.45;74.61
35918;BME280;22011;59.912;30.300;2023-07-09T02:35:04;101329.22;;;18.82;74.72
35918;BME280;22011;59.912;30.300;2023-07-09T02:37:31;101321.09;;;18.55;73.38
35918;BME280;22011;59.912;30.300;2023-07-09T02:39:59;101323.78;;;18.55;73.09
35918;BME280;22011;59.912;30.300;2023-07-09T02:42:27;101330.81;;;18.43;73.77
35918;BME280;22011;59.912;30.300;2023-07-09T02:44:54;101324.97;;;18.40;73.57
35918;BME280;22011;59.912;30.300;2023-07-09T02:47:25;101325.41;;;18.43;73.74
35918;BME280;22011;59.912;30.300;2023-07-09T02:49:55;101332.84;;;18.35;74.38
35918;BME280;22011;59.912;30.300;2023-07-09T02:52:22;101330.09;;;18.21;74.68
35918;BME280;22011;59.912;30.300;2023-07-09T02:54:50;101327.75;;;18.05;75.18
35918;BME280;22011;59.912;30.300;2023-07-09T02:57:17;101329.59;;;18.05;75.57
35918;BME280;22011;59.912;30.300;2023-07-09T02:59:45;101331.94;;;18.14;75.60
35918;BME280;22011;59.912;30.300;2023-07-09T03:02:12;101337.75;;;18.18;75.14
35918;BME280;22011;59.912;30.300;2023-07-09T03:04:40;101343.13;;;18.11;75.53
35918;BME280;22011;59.912;30.300;2023-07-09T03:07:09;101346.06;;;18.16;75.88
35918;BME280;22011;59.912;30.300;2023-07-09T03:09:36;101349.38;;;18.18;75.23
35918;BME280;22011;59.912;30.300;2023-07-09T03:12:05;101357.03;;;18.15;75.16
35918;BME280;22011;59.912;30.300;2023-07-09T03:14:32;101347.88;;;18.09;75.45
35918;BME280;22011;59.912;30.300;2023-07-09T03:17:00;101348.09;;;18.08;75.82
35918;BME280;22011;59.912;30.300;2023-07-09T03:19:28;101349.53;;;18.04;76.07
35918;BME280;22011;59.912;30.300;2023-07-09T03:21:55;101347.84;;;18.03;76.26
35918;BME280;22011;59.912;30.300;2023-07-09T03:24:24;101363.03;;;18.10;76.13
35918;BME280;22011;59.912;30.300;2023-07-09T03:26:52;101352.28;;;18.17;75.47
35918;BME280;22011;59.912;30.300;2023-07-09T03:29:19;101355.81;;;18.17;75.75
35918;BME280;22011;59.912;30.300;2023-07-09T03:31:47;101356.84;;;18.16;75.96
35918;BME280;22011;59.912;30.300;2023-07-09T03:34:15;101366.84;;;18.29;74.48
35918;BME280;22011;59.912;30.300;2023-07-09T03:36:44;101372.72;;;18.39;72.64
35918;BME280;22011;59.912;30.300;2023-07-09T03:39:12;101371.03;;;18.38;70.18
35918;BME280;22011;59.912;30.300;2023-07-09T03:41:41;101371.28;;;18.43;69.77
35918;BME280;22011;59.912;30.300;2023-07-09T03:44:08;101371.63;;;18.27;68.51
35918;BME280;22011;59.912;30.300;2023-07-09T03:46:36;101372.31;;;18.42;67.83
35918;BME280;22011;59.912;30.300;2023-07-09T03:49:03;101366.22;;;18.27;70.02
35918;BME280;22011;59.912;30.300;2023-07-09T03:51:31;101371.44;;;18.35;68.48
35918;BME280;22011;59.912;30.300;2023-07-09T03:53:59;101375.13;;;18.21;68.99
35918;BME280;22011;59.912;30.300;2023-07-09T03:56:26;101373.63;;;18.12;70.09
35918;BME280;22011;59.912;30.300;2023-07-09T03:58:55;101381.94;;;18.17;70.21
35918;BME280;22011;59.912;30.300;2023-07-09T04:01:23;101379.66;;;18.14;69.54
35918;BME280;22011;59.912;30.300;2023-07-09T04:03:50;101376.00;;;18.35;69.50
35918;BME280;22011;59.912;30.300;2023-07-09T04:06:18;101374.09;;;18.22;69.39
35918;BME280;22011;59.912;30.300;2023-07-09T04:08:45;101375.66;;;18.03;70.02
35918;BME280;22011;59.912;30.300;2023-07-09T04:11:12;101380.59;;;18.00;70.77
35918;BME280;22011;59.912;30.300;2023-07-09T04:13:40;101376.47;;;18.04;70.80
35918;BME280;22011;59.912;30.300;2023-07-09T04:16:09;101383.94;;;18.02;70.88
35918;BME280;22011;59.912;30.300;2023-07-09T04:18:37;101386.34;;;18.24;69.54
35918;BME280;22011;59.912;30.300;2023-07-09T04:21:04;101380.19;;;18.44;69.76
35918;BME280;22011;59.912;30.300;2023-07-09T04:23:32;101378.50;;;18.36;69.17
35918;BME280;22011;59.912;30.300;2023-07-09T04:25:59;101386.84;;;18.41;68.78
35918;BME280;22011;59.912;30.300;2023-07-09T04:28:28;101388.81;;;18.60;68.48
35918;BME280;22011;59.912;30.300;2023-07-09T04:30:57;101392.66;;;18.45;68.62
35918;BME280;22011;59.912;30.300;2023-07-09T04:33:26;101393.91;;;18.42;68.86
35918;BME280;22011;59.912;30.300;2023-07-09T04:35:53;101391.59;;;18.39;68.33
35918;BME280;22011;59.912;30.300;2023-07-09T04:38:20;101386.03;;;18.47;67.91
35918;BME280;22011;59.912;30.300;2023-07-09T04:40:49;101391.03;;;18.50;67.90
35918;BME280;22011;59.912;30.300;2023-07-09T04:43:16;101394.28;;;18.39;68.29
35918;BME280;22011;59.912;30.300;2023-07-09T04:45:44;101392.78;;;18.71;68.38
35918;BME280;22011;59.912;30.300;2023-07-09T04:48:11;101391.81;;;18.44;68.50
35918;BME280;22011;59.912;30.300;2023-07-09T04:50:40;101398.88;;;18.45;68.35
35918;BME280;22011;59.912;30.300;2023-07-09T04:53:07;101390.53;;;18.34;68.50
35918;BME280;22011;59.912;30.300;2023-07-09T04:55:35;101404.06;;;18.40;67.97
35918;BME280;22011;59.912;30.300;2023-07-09T04:58:02;101400.81;;;18.58;67.62
35918;BME280;22011;59.912;30.300;2023-07-09T05:00:30;101405.63;;;18.76;67.38
35918;BME280;22011;59.912;30.300;2023-07-09T05:02:57;101407.69;;;18.60;67.42
35918;BME280;22011;59.912;30.300;2023-07-09T05:05:25;101403.78;;;18.76;66.96
35918;BME280;22011;59.912;30.300;2023-07-09T05:07:54;101418.31;;;18.69;67.29
35918;BME280;22011;59.912;30.300;2023-07-09T05:10:21;101413.81;;;18.41;69.05
35918;BME280;22011;59.912;30.300;2023-07-09T05:12:50;101414.28;;;18.51;68.32
35918;BME280;22011;59.912;30.300;2023-07-09T05:15:18;101419.47;;;18.53;68.19
35918;BME280;22011;59.912;30.300;2023-07-09T05:17:46;101428.25;;;18.61;67.60
35918;BME280;22011;59.912;30.300;2023-07-09T05:20:14;101415.03;;;18.86;66.79
35918;BME280;22011;59.912;30.300;2023-07-09T05:22:42;101421.03;;;18.82;66.84
35918;BME280;22011;59.912;30.300;2023-07-09T05:25:11;101429.78;;;18.97;66.65
35918;BME280;22011;59.912;30.300;2023-07-09T05:27:38;101422.91;;;18.88;66.97
35918;BME280;22011;59.912;30.300;2023-07-09T05:30:06;101431.88;;;19.02;66.05
35918;BME280;22011;59.912;30.300;2023-07-09T05:32:36;101427.66;;;18.79;66.44
35918;BME280;22011;59.912;30.300;2023-07-09T05:35:04;101429.09;;;18.62;67.45
35918;BME280;22011;59.912;30.300;2023-07-09T05:37:32;101432.63;;;18.63;67.34
35918;BME280;22011;59.912;30.300;2023-07-09T05:39:59;101425.16;;;18.65;67.04
35918;BME280;22011;59.912;30.300;2023-07-09T05:42:28;101432.28;;;18.92;67.29
35918;BME280;22011;59.912;30.300;2023-07-09T05:44:56;101433.94;;;18.93;65.53
35918;BME280;22011;59.912;30.300;2023-07-09T05:47:23;101436.03;;;18.98;65.46
35918;BME280;22011;59.912;30.300;2023-07-09T05:49:51;101434.34;;;18.90;65.75
35918;BME280;22011;59.912;30.300;2023-07-09T05:52:21;101446.00;;;18.97;65.16
35918;BME280;22011;59.912;30.300;2023-07-09T05:54:49;101424.66;;;19.22;64.15
35918;BME280;22011;59.912;30.300;2023-07-09T05:57:18;101435.91;;;19.39;63.97
35918;BME280;22011;59.912;30.300;2023-07-09T05:59:47;101435.25;;;19.30;64.62
35918;BME280;22011;59.912;30.300;2023-07-09T06:02:16;101443.34;;;19.17;64.79
35918;BME280;22011;59.912;30.300;2023-07-09T06:04:44;101435.69;;;19.47;63.42
35918;BME280;22011;59.912;30.300;2023-07-09T06:07:12;101433.38;;;19.24;63.71
35918;BME280;22011;59.912;30.300;2023-07-09T06:09:40;101446.44;;;19.14;63.87
35918;BME280;22011;59.912;30.300;2023-07-09T06:12:08;101441.28;;;19.25;63.75
35918;BME280;22011;59.912;30.300;2023-07-09T06:14:35;101439.41;;;19.19;63.55
35918;BME280;22011;59.912;30.300;2023-07-09T06:17:04;101447.28;;;19.14;64.51
35918;BME280;22011;59.912;30.300;2023-07-09T06:19:32;101447.28;;;19.08;64.29
35918;BME280;22011;59.912;30.300;2023-07-09T06:22:00;101452.28;;;19.24;63.95
35918;BME280;22011;59.912;30.300;2023-07-09T06:24:27;101448.31;;;19.07;63.89
35918;BME280;22011;59.912;30.300;2023-07-09T06:26:55;101449.56;;;19.11;63.76
35918;BME280;22011;59.912;30.300;2023-07-09T06:29:22;101446.44;;;19.07;63.86
35918;BME280;22011;59.912;30.300;2023-07-09T06:31:50;101456.38;;;18.93;64.35
35918;BME280;22011;59.912;30.300;2023-07-09T06:34:19;101461.00;;;19.19;63.74
35918;BME280;22011;59.912;30.300;2023-07-09T06:36:46;101455.66;;;19.46;62.60
35918;BME280;22011;59.912;30.300;2023-07-09T06:39:14;101452.72;;;19.41;63.00
35918;BME280;22011;59.912;30.300;2023-07-09T06:41:42;101450.22;;;19.33;62.70
35918;BME280;22011;59.912;30.300;2023-07-09T06:44:29;101459.34;;;19.18;62.62
35918;BME280;22011;59.912;30.300;2023-07-09T06:46:57;101473.25;;;19.09;63.21
35918;BME280;22011;59.912;30.300;2023-07-09T06:49:26;101473.19;;;18.95;64.63
35918;BME280;22011;59.912;30.300;2023-07-09T06:51:53;101476.88;;;18.81;64.56
35918;BME280;22011;59.912;30.300;2023-07-09T06:54:20;101484.81;;;18.89;64.38
35918;BME280;22011;59.912;30.300;2023-07-09T06:56:48;101478.81;;;18.94;63.69
35918;BME280;22011;59.912;30.300;2023-07-09T06:59:15;101477.09;;;18.80;64.92
35918;BME280;22011;59.912;30.300;2023-07-09T07:01:43;101478.13;;;18.79;64.45
35918;BME280;22011;59.912;30.300;2023-07-09T07:04:10;101481.63;;;18.66;65.30
35918;BME280;22011;59.912;30.300;2023-07-09T07:06:39;101497.28;;;18.49;65.48
35918;BME280;22011;59.912;30.300;2023-07-09T07:09:07;101495.88;;;18.53;64.84
35918;BME280;22011;59.912;30.300;2023-07-09T07:11:34;101503.53;;;18.50;64.88
35918;BME280;22011;59.912;30.300;2023-07-09T07:14:02;101498.03;;;18.65;64.67
35918;BME280;22011;59.912;30.300;2023-07-09T07:16:29;101503.22;;;18.73;64.14
35918;BME280;22011;59.912;30.300;2023-07-09T07:18:57;101505.59;;;18.48;65.06
35918;BME280;22011;59.912;30.300;2023-07-09T07:21:24;101504.28;;;18.37;65.28
35918;BME280;22011;59.912;30.300;2023-07-09T07:23:53;101508.06;;;18.43;66.31
35918;BME280;22011;59.912;30.300;2023-07-09T07:26:21;101510.75;;;18.43;65.65
35918;BME280;22011;59.912;30.300;2023-07-09T07:28:48;101516.06;;;18.29;64.91
35918;BME280;22011;59.912;30.300;2023-07-09T07:31:16;101516.50;;;18.33;64.54
35918;BME280;22011;59.912;30.300;2023-07-09T07:33:44;101517.00;;;18.15;65.55
35918;BME280;22011;59.912;30.300;2023-07-09T07:36:11;101525.03;;;18.09;65.29
35918;BME280;22011;59.912;30.300;2023-07-09T07:38:39;101523.13;;;18.03;66.77
35918;BME280;22011;59.912;30.300;2023-07-09T07:41:08;101520.63;;;18.01;66.05
35918;BME280;22011;59.912;30.300;2023-07-09T07:43:36;101526.41;;;17.98;66.75
35918;BME280;22011;59.912;30.300;2023-07-09T07:46:04;101535.47;;;17.90;65.89
35918;BME280;22011;59.912;30.300;2023-07-09T07:48:31;101525.50;;;17.91;65.39
35918;BME280;22011;59.912;30.300;2023-07-09T07:50:59;101540.84;;;17.90;65.94
35918;BME280;22011;59.912;30.300;2023-07-09T07:53:27;101536.44;;;17.83;65.36
35918;BME280;22011;59.912;30.300;2023-07-09T07:55:56;101544.84;;;17.73;65.89
35918;BME280;22011;59.912;30.300;2023-07-09T07:58:25;101554.22;;;17.77;66.33
35918;BME280;22011;59.912;30.300;2023-07-09T08:00:55;101555.47;;;18.03;66.43
35918;BME280;22011;59.912;30.300;2023-07-09T08:03:23;101547.53;;;17.94;65.05
35918;BME280;22011;59.912;30.300;2023-07-09T08:05:50;101557.16;;;18.04;65.90
35918;BME280;22011;59.912;30.300;2023-07-09T08:08:18;101553.75;;;17.95;65.81
35918;BME280;22011;59.912;30.300;2023-07-09T08:10:45;101568.97;;;17.81;65.60
35918;BME280;22011;59.912;30.300;2023-07-09T08:13:13;101563.19;;;17.84;65.71
35918;BME280;22011;59.912;30.300;2023-07-09T08:15:42;101568.28;;;17.73;66.37
35918;BME280;22011;59.912;30.300;2023-07-09T08:18:12;101568.78;;;17.61;65.69
35918;BME280;22011;59.912;30.300;2023-07-09T08:20:43;101568.97;;;17.60;66.84
35918;BME280;22011;59.912;30.300;2023-07-09T08:23:10;101579.88;;;17.52;65.61
35918;BME280;22011;59.912;30.300;2023-07-09T08:25:38;101577.44;;;17.57;64.86
35918;BME280;22011;59.912;30.300;2023-07-09T08:28:05;101571.81;;;17.73;64.28
35918;BME280;22011;59.912;30.300;2023-07-09T08:30:34;101567.56;;;17.85;63.34
35918;BME280;22011;59.912;30.300;2023-07-09T08:33:03;101578.16;;;17.87;63.43
35918;BME280;22011;59.912;30.300;2023-07-09T08:35:30;101568.53;;;17.99;64.86
35918;BME280;22011;59.912;30.300;2023-07-09T08:37:59;101579.63;;;18.11;63.35
35918;BME280;22011;59.912;30.300;2023-07-09T08:40:27;101574.84;;;18.13;63.46
35918;BME280;22011;59.912;30.300;2023-07-09T08:42:59;101580.81;;;18.29;62.88
35918;BME280;22011;59.912;30.300;2023-07-09T08:45:36;101584.94;;;18.04;63.34
35918;BME280;22011;59.912;30.300;2023-07-09T08:48:12;101580.69;;;18.44;63.06
35918;BME280;22011;59.912;30.300;2023-07-09T08:50:47;101595.50;;;18.27;63.08
35918;BME280;22011;59.912;30.300;2023-07-09T08:53:19;101601.44;;;17.94;63.34
35918;BME280;22011;59.912;30.300;2023-07-09T08:55:47;101602.59;;;17.85;63.66
35918;BME280;22011;59.912;30.300;2023-07-09T08:58:21;101595.72;;;18.04;62.86
35918;BME280;22011;59.912;30.300;2023-07-09T09:00:53;101595.34;;;18.07;62.57
35918;BME280;22011;59.912;30.300;2023-07-09T09:03:28;101598.06;;;18.35;62.06
35918;BME280;22011;59.912;30.300;2023-07-09T09:05:58;101591.41;;;18.31;60.91
35918;BME280;22011;59.912;30.300;2023-07-09T09:08:36;101596.63;;;18.60;62.02
35918;BME280;22011;59.912;30.300;2023-07-09T09:11:07;101596.91;;;19.20;60.84
35918;BME280;22011;59.912;30.300;2023-07-09T09:13:37;101597.13;;;18.77;59.72
35918;BME280;22011;59.912;30.300;2023-07-09T09:16:12;101600.66;;;18.50;61.65
35918;BME280;22011;59.912;30.300;2023-07-09T09:18:44;101609.69;;;18.36;62.48
35918;BME280;22011;59.912;30.300;2023-07-09T09:21:15;101612.72;;;18.26;62.18
35918;BME280;22011;59.912;30.300;2023-07-09T09:23:48;101614.78;;;18.24;62.70
35918;BME280;22011;59.912;30.300;2023-07-09T09:26:18;101617.75;;;18.08;64.04
35918;BME280;22011;59.912;30.300;2023-07-09T09:28:48;101616.84;;;18.01;62.15
35918;BME280;22011;59.912;30.300;2023-07-09T09:31:17;101618.78;;;17.85;62.66
35918;BME280;22011;59.912;30.300;2023-07-09T09:33:47;101627.91;;;17.84;63.18
35918;BME280;22011;59.912;30.300;2023-07-09T09:36:18;101626.38;;;17.96;62.89
35918;BME280;22011;59.912;30.300;2023-07-09T09:38:46;101627.50;;;17.87;63.19
35918;BME280;22011;59.912;30.300;2023-07-09T09:41:18;101626.28;;;18.33;60.95
35918;BME280;22011;59.912;30.300;2023-07-09T09:43:48;101624.47;;;18.40;59.79
35918;BME280;22011;59.912;30.300;2023-07-09T09:46:20;101629.16;;;18.31;60.74
35918;BME280;22011;59.912;30.300;2023-07-09T09:48:51;101625.00;;;18.28;61.44
35918;BME280;22011;59.912;30.300;2023-07-09T09:51:20;101634.38;;;18.11;60.97
35918;BME280;22011;59.912;30.300;2023-07-09T09:53:51;101647.28;;;18.16;59.96
35918;BME280;22011;59.912;30.300;2023-07-09T09:56:25;101640.09;;;18.02;60.74
35918;BME280;22011;59.912;30.300;2023-07-09T09:58:55;101640.41;;;18.13;59.42
35918;BME280;22011;59.912;30.300;2023-07-09T10:01:27;101641.72;;;17.96;60.56
35918;BME280;22011;59.912;30.300;2023-07-09T10:03:59;101653.97;;;17.98;61.00
35918;BME280;22011;59.912;30.300;2023-07-09T10:06:34;101651.66;;;17.95;60.96
35918;BME280;22011;59.912;30.300;2023-07-09T10:09:13;101656.53;;;18.07;60.45
35918;BME280;22011;59.912;30.300;2023-07-09T10:11:46;101655.56;;;18.36;59.40
35918;BME280;22011;59.912;30.300;2023-07-09T10:14:33;101659.09;;;18.36;60.29
35918;BME280;22011;59.912;30.300;2023-07-09T10:17:13;101660.91;;;18.08;60.00
35918;BME280;22011;59.912;30.300;2023-07-09T10:19:48;101666.03;;;17.81;60.67
35918;BME280;22011;59.912;30.300;2023-07-09T10:22:24;101669.22;;;17.70;60.42
35918;BME280;22011;59.912;30.300;2023-07-09T10:25:01;101668.44;;;17.76;60.06
35918;BME280;22011;59.912;30.300;2023-07-09T10:27:35;101667.44;;;17.77;60.37
35918;BME280;22011;59.912;30.300;2023-07-09T10:30:29;101668.84;;;17.94;59.65
35918;BME280;22011;59.912;30.300;2023-07-09T10:33:08;101659.69;;;17.89;59.17
35918;BME280;22011;59.912;30.300;2023-07-09T10:35:43;101676.03;;;17.66;59.94
35918;BME280;22011;59.912;30.300;2023-07-09T10:38:32;101680.88;;;18.13;59.28
35918;BME280;22011;59.912;30.300;2023-07-09T10:41:09;101691.41;;;17.72;59.85
35918;BME280;22011;59.912;30.300;2023-07-09T10:43:43;101695.91;;;17.65;58.88
35918;BME280;22011;59.912;30.300;2023-07-09T10:46:14;101696.13;;;17.85;58.12
35918;BME280;22011;59.912;30.300;2023-07-09T10:48:45;101696.84;;;17.57;59.07
35918;BME280;22011;59.912;30.300;2023-07-09T10:51:21;101692.59;;;17.84;59.01
35918;BME280;22011;59.912;30.300;2023-07-09T10:53:52;101685.78;;;17.88;57.78
35918;BME280;22011;59.912;30.300;2023-07-09T10:56:26;101696.38;;;17.54;58.81
35918;BME280;22011;59.912;30.300;2023-07-09T10:58:57;101705.59;;;17.45;58.46
35918;BME280;22011;59.912;30.300;2023-07-09T11:01:32;101689.78;;;17.42;57.91
35918;BME280;22011;59.912;30.300;2023-07-09T11:04:03;101691.75;;;17.48;58.15
35918;BME280;22011;59.912;30.300;2023-07-09T11:06:36;101698.22;;;17.53;58.34
35918;BME280;22011;59.912;30.300;2023-07-09T11:09:14;101688.94;;;17.56;58.68
35918;BME280;22011;59.912;30.300;2023-07-09T11:11:48;101701.75;;;17.54;57.68
35918;BME280;22011;59.912;30.300;2023-07-09T11:14:24;101703.97;;;17.65;57.36
35918;BME280;22011;59.912;30.300;2023-07-09T11:16:55;101709.75;;;17.62;56.60
35918;BME280;22011;59.912;30.300;2023-07-09T11:19:25;101701.66;;;17.62;56.09
35918;BME280;22011;59.912;30.300;2023-07-09T11:22:16;101703.34;;;17.99;56.85
35918;BME280;22011;59.912;30.300;2023-07-09T11:24:46;101706.25;;;17.83;55.43
35918;BME280;22011;59.912;30.300;2023-07-09T11:27:20;101707.56;;;17.87;55.47
35918;BME280;22011;59.912;30.300;2023-07-09T11:29:55;101706.56;;;17.73;54.27
35918;BME280;22011;59.912;30.300;2023-07-09T11:32:23;101696.44;;;17.75;53.72
35918;BME280;22011;59.912;30.300;2023-07-09T11:34:51;101695.66;;;17.81;54.17
35918;BME280;22011;59.912;30.300;2023-07-09T11:37:24;101695.50;;;18.04;54.31
35918;BME280;22011;59.912;30.300;2023-07-09T11:39:52;101707.47;;;17.80;53.73
35918;BME280;22011;59.912;30.300;2023-07-09T11:42:25;101705.81;;;17.79;54.82
35918;BME280;22011;59.912;30.300;2023-07-09T11:44:58;101709.53;;;17.78;54.90
35918;BME280;22011;59.912;30.300;2023-07-09T11:47:29;101709.81;;;17.69;54.19
35918;BME280;22011;59.912;30.300;2023-07-09T11:50:00;101708.38;;;17.66;53.74
35918;BME280;22011;59.912;30.300;2023-07-09T11:52:32;101704.25;;;17.70;53.79
35918;BME280;22011;59.912;30.300;2023-07-09T11:55:03;101709.09;;;17.60;53.38
35918;BME280;22011;59.912;30.300;2023-07-09T11:57:38;101707.44;;;17.59;53.68
35918;BME280;22011;59.912;30.300;2023-07-09T12:00:08;101717.06;;;17.68;53.93
35918;BME280;22011;59.912;30.300;2023-07-09T12:02:39;101711.97;;;17.58;53.84
35918;BME280;22011;59.912;30.300;2023-07-09T12:05:08;101719.88;;;17.60;53.51
35918;BME280;22011;59.912;30.300;2023-07-09T12:07:38;101713.09;;;17.64;53.15
35918;BME280;22011;59.912;30.300;2023-07-09T12:10:18;101721.53;;;17.76;53.48
35918;BME280;22011;59.912;30.300;2023-07-09T12:12:46;101708.44;;;17.58;52.47
35918;BME280;22011;59.912;30.300;2023-07-09T12:15:18;101716.97;;;17.76;52.72
35918;BME280;22011;59.912;30.300;2023-07-09T12:17:56;101723.38;;;17.75;53.05
35918;BME280;22011;59.912;30.300;2023-07-09T12:20:24;101724.16;;;17.54;51.98
35918;BME280;22011;59.912;30.300;2023-07-09T12:22:53;101725.94;;;17.47;53.35
35918;BME280;22011;59.912;30.300;2023-07-09T12:25:23;101724.06;;;17.48;52.64
35918;BME280;22011;59.912;30.300;2023-07-09T12:27:51;101712.16;;;17.57;52.73
35918;BME280;22011;59.912;30.300;2023-07-09T12:30:20;101708.53;;;17.64;51.91
35918;BME280;22011;59.912;30.300;2023-07-09T12:32:49;101718.13;;;17.67;51.79
35918;BME280;22011;59.912;30.300;2023-07-09T12:35:18;101719.03;;;17.74;51.32
35918;BME280;22011;59.912;30.300;2023-07-09T12:37:48;101730.38;;;17.70;52.63
35918;BME280;22011;59.912;30.300;2023-07-09T12:40:21;101727.94;;;17.75;51.63
35918;BME280;22011;59.912;30.300;2023-07-09T12:42:49;101724.13;;;17.69;50.69
35918;BME280;22011;59.912;30.300;2023-07-09T12:45:19;101725.22;;;17.89;50.88
35918;BME280;22011;59.912;30.300;2023-07-09T12:47:47;101733.38;;;17.96;49.98
35918;BME280;22011;59.912;30.300;2023-07-09T12:50:27;101727.41;;;18.01;50.91
35918;BME280;22011;59.912;30.300;2023-07-09T12:52:56;101733.22;;;17.83;50.56